Terminal Aerodrome Forecast
Issued by NWS

Home | Current Version | Previous Version | Text Only | Print | Product List | Glossary On
Versions: 1 2 3 4 5 6 7 8 9 10 11 12 13 14 15 16 17 18 19 20 21
263
FTUS41 KGYX 070855 AAA
TAFAUG
TAF AMD
KAUG 070855Z 0709/0806 03005KT P6SM OVC120
     FM071300 VRB03KT 4SM -SN OVC020
     FM072200 21005KT P6SM -SHSN BKN025
     FM080400 27005KT P6SM BKN100=

USA.gov is the U.S. government's official web portal to all federal, state and local government web resources and services.